Time;durP1;ratioP1;P1;durP2;ratioP2;P2;SDS_P1;SDS_P2;PMS_P1;PMS_P2;Temp;Humidity;BMP_temperature;BMP_pressure;BME280_temperature;BME280_humidity;BME280_pressure;Samples;Min_cycle;Max_cycle;Signal;HPM_P1;HPM_P2
2022/06/18 00:00:29;;;;;;;;;;;;;;;16.32;100.00;96443.69;1031461;28;19965;-72
2022/06/18 00:00:59;;;;;;;;;;;;;;;16.29;100.00;96449.53;1031673;28;19967;-72
2022/06/18 00:01:34;;;;;;;;;;;;;;;16.25;100.00;96444.03;1031596;28;20454;-72
2022/06/18 00:02:09;;;;;;;;;;;;;;;16.25;100.00;96444.81;1035291;28;20245;-70
2022/06/18 00:02:40;;;;;;;;;;;;;;;16.24;100.00;96434.50;1031349;28;20341;-72
2022/06/18 00:03:10;;;;;;;;;;;;;;;16.22;100.00;96442.72;1028671;28;19918;-71
2022/06/18 00:03:41;;;;;;;;;;;;;;;16.19;100.00;96440.63;1027644;28;19914;-71
2022/06/18 00:04:12;;;;;;;;;;;;;;;16.17;100.00;96445.44;1027732;28;19960;-71
2022/06/18 00:04:43;;;;;;;;;;;;;;;16.19;100.00;96445.94;1027411;28;20004;-72
2022/06/18 00:05:14;;;;;;;;;;;;;;;16.17;100.00;96445.44;1031615;28;20370;-72
2022/06/18 00:05:45;;;;;;;;;;;;;;;16.18;100.00;96449.66;1027599;28;20012;-73
2022/06/18 00:06:15;;;;;;;;;;;;;;;16.18;100.00;96441.72;1027394;28;19969;-72
2022/06/18 00:06:52;;;;;;;;;;;;;;;16.19;100.00;96448.56;1027562;28;19947;-70
2022/06/18 00:07:23;;;;;;;;;;;;;;;16.19;100.00;96443.28;1029466;28;20363;-72
2022/06/18 00:07:53;;;;;;;;;;;;;;;16.17;100.00;96445.44;1031520;28;19914;-72
2022/06/18 00:08:24;;;;;;;;;;;;;;;16.17;100.00;96442.00;1031149;28;19921;-72
2022/06/18 00:08:54;;;;;;;;;;;;;;;16.14;100.00;96443.34;1031910;28;19944;-74
2022/06/18 00:09:28;;;;;;;;;;;;;;;16.13;100.00;96444.41;1027766;28;20005;-72
2022/06/18 00:10:01;;;;;;;;;;;;;;;16.10;100.00;96439.69;1027836;28;20321;-73
2022/06/18 00:10:31;;;;;;;;;;;;;;;16.12;100.00;96445.47;1032123;28;19924;-71
2022/06/18 00:13:40;;;;;;;;;;;;;;;16.03;100.00;96455.13;1034931;28;20324;-73
2022/06/18 00:14:11;;;;;;;;;;;;;;;16.02;100.00;96454.31;1035571;28;19921;-72
2022/06/18 00:14:42;;;;;;;;;;;;;;;16.01;100.00;96451.94;1039658;28;19917;-69
2022/06/18 00:15:17;;;;;;;;;;;;;;;16.03;100.00;96455.13;1039256;28;19917;-70
2022/06/18 00:15:48;;;;;;;;;;;;;;;16.01;100.00;96450.09;1035741;28;19932;-70
2022/06/18 00:16:20;;;;;;;;;;;;;;;16.07;100.00;96452.69;1035641;28;20031;-70
2022/06/18 00:16:50;;;;;;;;;;;;;;;16.09;100.00;96450.53;1032533;28;19925;-69
2022/06/18 00:17:21;;;;;;;;;;;;;;;16.05;100.00;96452.97;1035519;28;20012;-72
2022/06/18 00:17:51;;;;;;;;;;;;;;;16.02;100.00;96453.50;1039070;28;19917;-70
2022/06/18 00:18:21;;;;;;;;;;;;;;;16.00;100.00;96456.44;1035498;28;20401;-72
2022/06/18 00:18:52;;;;;;;;;;;;;;;16.05;100.00;96452.97;1039712;28;20357;-71
2022/06/18 00:19:22;;;;;;;;;;;;;;;16.05;100.00;96452.97;1039718;28;20108;-70
2022/06/18 00:19:52;;;;;;;;;;;;;;;16.00;100.00;96459.09;1035313;28;19918;-69
2022/06/18 00:20:23;;;;;;;;;;;;;;;16.01;100.00;96462.53;1039001;28;19983;-71
2022/06/18 00:20:53;;;;;;;;;;;;;;;16.00;100.00;96458.31;1031479;28;20113;-70
2022/06/18 00:21:24;;;;;;;;;;;;;;;16.00;100.00;96456.44;1031563;28;20009;-71
2022/06/18 00:21:55;;;;;;;;;;;;;;;16.05;100.00;96458.25;1031339;28;19918;-70
2022/06/18 00:22:25;;;;;;;;;;;;;;;16.07;100.00;96461.41;1027067;28;20170;-70
2022/06/18 00:22:56;;;;;;;;;;;;;;;16.05;100.00;96457.47;1031531;28;19936;-69
2022/06/18 00:23:28;;;;;;;;;;;;;;;16.07;100.00;96456.13;1027425;28;20698;-70
2022/06/18 00:23:58;;;;;;;;;;;;;;;16.07;100.00;96458.78;1027547;28;19946;-70
2022/06/18 00:24:29;;;;;;;;;;;;;;;16.05;100.00;96452.97;1031674;28;20012;-70
2022/06/18 00:25:00;;;;;;;;;;;;;;;16.03;100.00;96461.19;1031778;28;19917;-70
2022/06/18 00:25:30;;;;;;;;;;;;;;;16.04;100.00;96459.34;1031328;28;20011;-70
2022/06/18 00:26:01;;;;;;;;;;;;;;;16.02;100.00;96458.81;1035594;28;19922;-72
2022/06/18 00:26:31;;;;;;;;;;;;;;;16.04;100.00;96467.28;1035454;28;19917;-71
2022/06/18 00:27:01;;;;;;;;;;;;;;;16.04;100.00;96464.63;1035582;28;19929;-70
2022/06/18 00:27:32;;;;;;;;;;;;;;;16.00;100.00;96460.97;1039337;28;19924;-70
2022/06/18 00:28:03;;;;;;;;;;;;;;;15.98;100.00;96455.16;1039413;28;19971;-70
2022/06/18 00:28:36;;;;;;;;;;;;;;;15.97;100.00;96458.88;1035454;28;19913;-70
2022/06/18 00:29:13;;;;;;;;;;;;;;;15.93;100.00;96458.63;1031427;28;20013;-69
2022/06/18 00:29:44;;;;;;;;;;;;;;;15.91;100.00;96454.69;1031308;28;19929;-70
2022/06/18 00:30:16;;;;;;;;;;;;;;;15.91;100.00;96452.03;1032793;28;20323;-70
2022/06/18 00:30:46;;;;;;;;;;;;;;;15.87;100.00;96457.09;1035458;28;19953;-70
2022/06/18 00:31:17;;;;;;;;;;;;;;;15.89;100.00;96456.81;1027477;28;19914;-71
2022/06/18 00:31:47;;;;;;;;;;;;;;;15.90;100.00;96461.84;1027787;28;19924;-70
2022/06/18 00:32:17;;;;;;;;;;;;;;;15.95;100.00;96458.34;1030652;28;19910;-74
2022/06/18 00:32:48;;;;;;;;;;;;;;;15.95;100.00;96453.84;1031616;28;19941;-71
2022/06/18 00:33:18;;;;;;;;;;;;;;;15.95;100.00;96453.84;1035475;28;19940;-70
2022/06/18 00:33:48;;;;;;;;;;;;;;;15.98;100.00;96461.22;1035391;28;19922;-70
2022/06/18 00:34:19;;;;;;;;;;;;;;;15.97;100.00;96453.56;1033650;28;19985;-71
2022/06/18 00:34:49;;;;;;;;;;;;;;;15.96;100.00;96457.28;1035391;28;19993;-68
2022/06/18 00:35:20;;;;;;;;;;;;;;;15.98;100.00;96463.09;1035442;28;19917;-71
2022/06/18 00:35:51;;;;;;;;;;;;;;;15.98;100.00;96460.44;1037161;28;20358;-71
2022/06/18 00:36:22;;;;;;;;;;;;;;;15.94;100.00;96456.78;1035511;28;20061;-69
2022/06/18 00:36:53;;;;;;;;;;;;;;;15.93;100.00;96461.28;1031461;28;20386;-71
2022/06/18 00:37:25;;;;;;;;;;;;;;;15.91;100.00;96462.63;1031389;28;19924;-71
2022/06/18 00:37:55;;;;;;;;;;;;;;;15.88;100.00;96455.25;1031192;28;20063;-69
2022/06/18 00:38:29;;;;;;;;;;;;;;;15.88;100.00;96457.88;1028198;28;19906;-71
2022/06/18 00:39:00;;;;;;;;;;;;;;;15.88;100.00;96457.88;1031461;28;19933;-72
2022/06/18 00:39:30;;;;;;;;;;;;;;;15.86;100.00;96454.72;1031833;28;20036;-74
2022/06/18 00:40:00;;;;;;;;;;;;;;;15.87;100.00;96456.31;1031857;28;19914;-71
2022/06/18 00:40:32;;;;;;;;;;;;;;;15.81;100.00;96462.72;1031577;28;19958;-70
2022/06/18 00:41:03;;;;;;;;;;;;;;;15.81;100.00;96460.06;1031341;28;19925;-72
2022/06/18 00:41:33;;;;;;;;;;;;;;;15.80;100.00;96464.56;1027645;28;19989;-70
2022/06/18 00:42:05;;;;;;;;;;;;;;;15.76;100.00;96463.53;1027067;28;19918;-71
2022/06/18 00:42:37;;;;;;;;;;;;;;;15.74;100.00;96457.75;1027398;28;20350;-71
2022/06/18 00:43:17;;;;;;;;;;;;;;;15.76;100.00;96461.69;1031802;28;19914;-70
2022/06/18 00:43:58;;;;;;;;;;;;;;;15.76;100.00;96460.88;1029141;28;20467;-73
2022/06/18 00:44:30;;;;;;;;;;;;;;;15.75;100.00;96461.97;1027293;28;19973;-71
2022/06/18 00:45:00;;;;;;;;;;;;;;;15.76;100.00;96467.00;1027444;28;20423;-70
2022/06/18 00:45:30;;;;;;;;;;;;;;;15.72;100.00;96460.66;1032160;28;19914;-70
2022/06/18 00:46:27;;;;;;;;;;;;;;;15.70;100.00;96467.31;1039779;28;19995;-72
2022/06/18 00:47:18;;;;;;;;;;;;;;;15.68;100.00;96464.13;1019464;29;19914;-70
2022/06/18 00:47:52;;;;;;;;;;;;;;;15.65;100.00;96465.44;1033007;28;19956;-70
2022/06/18 00:48:41;;;;;;;;;;;;;;;15.65;100.00;96464.66;1031349;28;20335;-72
2022/06/18 00:49:15;;;;;;;;;;;;;;;15.64;100.00;96463.88;1031060;28;19912;-69
2022/06/18 00:49:52;;;;;;;;;;;;;;;15.67;100.00;96473.94;1034767;28;19913;-70
2022/06/18 00:50:40;;;;;;;;;;;;;;;15.68;100.00;96475.50;1039118;28;20309;-73
2022/06/18 00:51:17;;;;;;;;;;;;;;;15.67;100.00;96465.22;1034805;28;20465;-74
2022/06/18 00:51:49;;;;;;;;;;;;;;;15.65;100.00;96469.94;1031486;28;20375;-70
2022/06/18 00:52:24;;;;;;;;;;;;;;;15.68;100.00;96469.44;1026581;28;19914;-70
2022/06/18 00:53:17;;;;;;;;;;;;;;;15.67;100.00;96468.66;1031514;28;19980;-71
2022/06/18 00:53:49;;;;;;;;;;;;;;;15.68;100.00;96472.84;1020585;28;20255;-70
2022/06/18 00:54:30;;;;;;;;;;;;;;;15.69;100.00;96461.22;1027289;28;19933;-70
2022/06/18 00:55:02;;;;;;;;;;;;;;;15.70;100.00;96473.38;1027491;28;20338;-72
2022/06/18 00:55:41;;;;;;;;;;;;;;;15.71;100.00;96467.00;1027069;28;20135;-70
2022/06/18 00:56:31;;;;;;;;;;;;;;;15.70;100.00;96467.31;1034127;28;19910;-69
2022/06/18 00:57:02;;;;;;;;;;;;;;;15.66;100.00;96472.38;1030693;28;19910;-70
2022/06/18 00:57:34;;;;;;;;;;;;;;;15.63;100.00;96467.59;1032704;28;20004;-70
2022/06/18 00:58:07;;;;;;;;;;;;;;;15.66;100.00;96467.06;1036405;28;19913;-71
2022/06/18 00:58:46;;;;;;;;;;;;;;;15.64;100.00;96463.88;1035312;28;20264;-73
2022/06/18 00:59:42;;;;;;;;;;;;;;;15.68;100.00;96469.44;1035315;28;20596;-70
2022/06/18 01:00:14;;;;;;;;;;;;;;;15.64;100.00;96463.88;1029143;28;19909;-70
2022/06/18 01:00:45;;;;;;;;;;;;;;;15.68;100.00;96462.28;1029811;28;19916;-72
2022/06/18 01:01:18;;;;;;;;;;;;;;;15.67;100.00;96468.66;1036109;28;20409;-70
2022/06/18 01:01:49;;;;;;;;;;;;;;;15.64;100.00;96469.16;1031307;28;19932;-70
2022/06/18 01:02:20;;;;;;;;;;;;;;;15.63;100.00;96464.94;1030647;28;20416;-71
2022/06/18 01:02:52;;;;;;;;;;;;;;;15.64;100.00;96463.88;1030963;28;20130;-70
2022/06/18 01:03:25;;;;;;;;;;;;;;;15.68;100.00;96464.13;1031813;28;19914;-71
2022/06/18 01:03:56;;;;;;;;;;;;;;;15.65;100.00;96465.44;1035286;28;19957;-70
2022/06/18 01:04:27;;;;;;;;;;;;;;;15.67;100.00;96457.28;1032093;28;19913;-70
2022/06/18 01:04:58;;;;;;;;;;;;;;;15.67;100.00;96460.72;1031077;28;19952;-70
2022/06/18 01:05:33;;;;;;;;;;;;;;;15.69;100.00;96461.22;1027551;28;20162;-71
2022/06/18 01:06:04;;;;;;;;;;;;;;;15.68;100.00;96459.63;1028286;28;20074;-72
2022/06/18 01:06:34;;;;;;;;;;;;;;;15.66;100.00;96455.66;1021172;29;20014;-70
2022/06/18 01:07:05;;;;;;;;;;;;;;;15.65;100.00;96449.56;1023957;28;19914;-71
2022/06/18 01:07:36;;;;;;;;;;;;;;;15.67;100.00;96457.28;1027578;28;20392;-70
2022/06/18 01:08:11;;;;;;;;;;;;;;;15.65;100.00;96454.84;1027643;28;19914;-72
2022/06/18 01:08:41;;;;;;;;;;;;;;;15.65;100.00;96449.56;1035461;28;19914;-71
2022/06/18 01:09:12;;;;;;;;;;;;;;;15.65;100.00;96449.56;1031132;28;19957;-71
2022/06/18 01:09:43;;;;;;;;;;;;;;;15.63;100.00;96457.00;1027087;28;19926;-72
2022/06/18 01:10:15;;;;;;;;;;;;;;;15.63;100.00;96454.38;1027279;28;19982;-70
2022/06/18 01:10:50;;;;;;;;;;;;;;;15.64;100.00;96453.28;1023911;28;19918;-70
2022/06/18 01:11:21;;;;;;;;;;;;;;;15.64;100.00;96453.28;1027116;28;19918;-68
2022/06/18 01:11:51;;;;;;;;;;;;;;;15.62;100.00;96455.41;1028175;28;19911;-71
2022/06/18 01:12:22;;;;;;;;;;;;;;;15.59;100.00;96449.88;1028184;28;19914;-69
2022/06/18 01:12:55;;;;;;;;;;;;;;;15.57;100.00;96445.66;1031285;28;19983;-74
2022/06/18 01:13:31;;;;;;;;;;;;;;;15.65;100.00;96446.91;1031029;28;20472;-71
2022/06/18 01:14:04;;;;;;;;;;;;;;;15.65;100.00;96449.56;1028465;28;19918;-71
2022/06/18 01:14:34;;;;;;;;;;;;;;;15.59;100.00;96445.38;1027323;28;20036;-71
2022/06/18 01:15:06;;;;;;;;;;;;;;;15.59;100.00;96445.38;1027242;28;19910;-74
2022/06/18 01:15:36;;;;;;;;;;;;;;;15.57;100.00;96447.53;1023101;29;19910;-70
2022/06/18 01:16:07;;;;;;;;;;;;;;;15.58;100.00;96446.44;1023516;28;19997;-70
2022/06/18 01:16:37;;;;;;;;;;;;;;;15.56;100.00;96451.25;1024924;28;19907;-71
2022/06/18 01:17:08;;;;;;;;;;;;;;;15.57;100.00;96444.88;1031465;28;19910;-73
2022/06/18 01:17:38;;;;;;;;;;;;;;;15.58;100.00;96449.09;1035228;28;19921;-71
2022/06/18 01:18:09;;;;;;;;;;;;;;;15.56;100.00;96445.97;1035229;28;19985;-69
2022/06/18 01:18:39;;;;;;;;;;;;;;;15.56;100.00;96448.59;1035339;28;19914;-73
2022/06/18 01:19:20;;;;;;;;;;;;;;;15.58;100.00;96443.81;1031289;28;20378;-70
2022/06/18 01:19:50;;;;;;;;;;;;;;;15.56;100.00;96440.66;1026987;28;19925;-71
2022/06/18 01:20:23;;;;;;;;;;;;;;;15.57;100.00;96447.53;1025490;28;19957;-70
2022/06/18 01:20:55;;;;;;;;;;;;;;;15.59;100.00;96445.38;1021086;29;19917;-70
2022/06/18 01:21:34;;;;;;;;;;;;;;;15.61;100.00;96450.41;1023909;28;19961;-72
2022/06/18 01:22:20;;;;;;;;;;;;;;;15.56;100.00;96443.31;1029776;28;20013;-71
2022/06/18 01:22:53;;;;;;;;;;;;;;;15.58;100.00;96446.44;1039437;28;20008;-70
2022/06/18 01:23:23;;;;;;;;;;;;;;;15.56;100.00;96443.31;1038918;28;19921;-72
2022/06/18 01:24:12;;;;;;;;;;;;;;;15.57;100.00;96440.38;1039131;28;20473;-70
2022/06/18 01:24:44;;;;;;;;;;;;;;;15.49;100.00;96440.16;1035306;28;19916;-70
2022/06/18 01:25:14;;;;;;;;;;;;;;;15.50;100.00;96445.19;1037994;28;20005;-70
2022/06/18 01:25:44;;;;;;;;;;;;;;;15.47;100.00;96443.09;1039212;28;20323;-72
2022/06/18 01:26:15;;;;;;;;;;;;;;;15.50;100.00;96436.47;1035449;28;19996;-72
2022/06/18 01:26:46;;;;;;;;;;;;;;;15.49;100.00;96443.63;1035440;28;19914;-72
2022/06/18 01:27:16;;;;;;;;;;;;;;;15.48;100.00;96438.59;1031130;28;19914;-70
2022/06/18 01:27:47;;;;;;;;;;;;;;;15.49;100.00;96442.81;1027367;28;19914;-71
2022/06/18 01:28:17;;;;;;;;;;;;;;;15.49;100.00;96443.63;1027303;28;19968;-71
2022/06/18 01:28:47;;;;;;;;;;;;;;;15.48;100.00;96443.88;1031270;28;19917;-72
2022/06/18 01:29:18;;;;;;;;;;;;;;;15.47;100.00;96442.31;1035249;28;20275;-71
2022/06/18 01:29:51;;;;;;;;;;;;;;;15.50;100.00;96441.78;1039752;28;19921;-70
2022/06/18 01:30:22;;;;;;;;;;;;;;;15.53;100.00;96443.88;1039365;28;19913;-72
2022/06/18 01:30:52;;;;;;;;;;;;;;;15.54;100.00;96437.50;1039075;28;19968;-69
2022/06/18 01:31:23;;;;;;;;;;;;;;;15.53;100.00;96436.72;1039459;28;20435;-71
2022/06/18 01:31:53;;;;;;;;;;;;;;;15.53;100.00;96442.00;1039338;28;20456;-70
2022/06/18 01:32:24;;;;;;;;;;;;;;;15.50;100.00;96439.13;1042651;28;19913;-72
2022/06/18 01:32:54;;;;;;;;;;;;;;;15.51;100.00;96438.84;1039361;28;19913;-72
2022/06/18 01:33:24;;;;;;;;;;;;;;;15.49;100.00;96432.22;1035308;28;19913;-71
2022/06/18 01:33:55;;;;;;;;;;;;;;;15.48;100.00;96439.38;1033486;28;19952;-70
2022/06/18 01:34:26;;;;;;;;;;;;;;;15.51;100.00;96435.41;1030944;28;19918;-70
2022/06/18 01:34:56;;;;;;;;;;;;;;;15.50;100.00;96439.13;1031460;28;19961;-70
2022/06/18 01:35:26;;;;;;;;;;;;;;;15.47;100.00;96432.53;1035404;28;19924;-69
2022/06/18 01:35:57;;;;;;;;;;;;;;;15.47;100.00;96439.66;1035225;28;20162;-71
2022/06/18 01:36:27;;;;;;;;;;;;;;;15.48;100.00;96439.38;1031092;28;19949;-71
2022/06/18 01:36:58;;;;;;;;;;;;;;;15.44;100.00;96440.22;1031363;28;19964;-72
2022/06/18 01:37:29;;;;;;;;;;;;;;;15.44;100.00;96437.56;1027030;28;20085;-71
2022/06/18 01:37:59;;;;;;;;;;;;;;;15.43;100.00;96436.00;1027458;28;19922;-71
2022/06/18 01:38:29;;;;;;;;;;;;;;;15.42;100.00;96437.06;1031145;28;20028;-69
2022/06/18 01:39:00;;;;;;;;;;;;;;;15.41;100.00;96438.91;1031162;28;19945;-73
2022/06/18 01:39:31;;;;;;;;;;;;;;;15.41;100.00;96441.56;1034846;28;19928;-74
2022/06/18 01:40:01;;;;;;;;;;;;;;;15.43;100.00;96436.78;1031319;28;20450;-71
2022/06/18 01:40:34;;;;;;;;;;;;;;;15.46;100.00;96443.38;1031041;28;19956;-72
2022/06/18 01:41:56;;;;;;;;;;;;;;;15.46;100.00;96433.59;1025082;28;19929;-68
2022/06/18 01:42:28;;;;;;;;;;;;;;;15.47;100.00;96432.53;1024022;28;19918;-69
2022/06/18 01:42:59;;;;;;;;;;;;;;;15.45;100.00;96423.28;1024705;28;20412;-71
2022/06/18 01:43:29;;;;;;;;;;;;;;;15.44;100.00;96432.28;1019262;29;19990;-70
2022/06/18 01:44:00;;;;;;;;;;;;;;;15.43;100.00;96428.06;1018374;29;19988;-69
2022/06/18 01:44:33;;;;;;;;;;;;;;;15.43;100.00;96430.72;1029480;28;19926;-68
2022/06/18 01:45:08;;;;;;;;;;;;;;;15.42;100.00;96431.75;1027174;28;20196;-69
2022/06/18 01:45:39;;;;;;;;;;;;;;;15.39;100.00;96433.13;1024328;28;19953;-72
2022/06/18 01:46:12;;;;;;;;;;;;;;;15.41;100.00;96432.84;1024098;28;20308;-70
2022/06/18 01:46:43;;;;;;;;;;;;;;;15.43;100.00;96434.16;1025140;28;20402;-70
2022/06/18 01:47:16;;;;;;;;;;;;;;;15.39;100.00;96437.59;1027279;28;19965;-70
2022/06/18 01:47:55;;;;;;;;;;;;;;;15.40;100.00;96436.56;1024094;28;19922;-70
2022/06/18 01:48:35;;;;;;;;;;;;;;;15.38;100.00;96428.09;1021220;29;19918;-70
2022/06/18 01:49:06;;;;;;;;;;;;;;;15.37;100.00;96437.09;1024982;28;19956;-69
2022/06/18 01:49:37;;;;;;;;;;;;;;;15.35;100.00;96429.44;1028286;28;19914;-69
2022/06/18 01:50:10;;;;;;;;;;;;;;;15.29;100.00;96426.06;1031328;28;19977;-71
2022/06/18 01:50:45;;;;;;;;;;;;;;;15.27;100.00;96430.03;1032155;28;20049;-70
2022/06/18 01:51:17;;;;;;;;;;;;;;;15.26;100.00;96426.59;1035189;28;20000;-69
2022/06/18 01:51:48;;;;;;;;;;;;;;;15.23;100.00;96426.34;1032636;28;19918;-71
2022/06/18 01:52:18;;;;;;;;;;;;;;;15.22;100.00;96430.03;1030727;28;19917;-68
2022/06/18 01:52:50;;;;;;;;;;;;;;;15.20;100.00;96425.03;1027168;28;19945;-71
2022/06/18 01:53:27;;;;;;;;;;;;;;;15.18;100.00;96427.16;1027325;28;19918;-70
2022/06/18 01:54:08;;;;;;;;;;;;;;;15.19;100.00;96426.13;1027457;28;19964;-69
2022/06/18 01:54:40;;;;;;;;;;;;;;;15.22;100.00;96420.25;1027435;28;20954;-71
2022/06/18 01:55:13;;;;;;;;;;;;;;;15.22;100.00;96420.25;1030421;28;19952;-70
2022/06/18 01:55:44;;;;;;;;;;;;;;;15.20;100.00;96416.34;1024974;28;20001;-68
2022/06/18 01:56:19;;;;;;;;;;;;;;;15.20;100.00;96421.63;1027378;28;19989;-71
2022/06/18 01:56:51;;;;;;;;;;;;;;;15.20;100.00;96418.97;1024604;28;19915;-71
2022/06/18 01:57:22;;;;;;;;;;;;;;;15.17;100.00;96422.16;1024510;28;19914;-69
2022/06/18 01:57:53;;;;;;;;;;;;;;;15.22;100.00;96422.91;1022484;29;19950;-69
2022/06/18 01:58:28;;;;;;;;;;;;;;;15.19;100.00;96417.38;1024360;28;20442;-71
2022/06/18 01:59:04;;;;;;;;;;;;;;;15.18;100.00;96416.59;1028443;28;19906;-69
2022/06/18 01:59:35;;;;;;;;;;;;;;;15.21;100.00;96417.91;1028666;28;19910;-72
2022/06/18 02:00:12;;;;;;;;;;;;;;;15.17;100.00;96412.38;1030261;28;20375;-70
2022/06/18 02:00:42;;;;;;;;;;;;;;;15.19;100.00;96414.72;1031676;28;19910;-73
2022/06/18 02:01:17;;;;;;;;;;;;;;;15.16;100.00;96418.72;1035373;28;19913;-71
2022/06/18 02:01:49;;;;;;;;;;;;;;;15.16;100.00;96415.31;1033205;28;20045;-70
2022/06/18 02:02:19;;;;;;;;;;;;;;;15.16;100.00;96415.31;1030876;28;19921;-70
2022/06/18 02:02:50;;;;;;;;;;;;;;;15.18;100.00;96413.16;1031430;28;19918;-69
2022/06/18 02:03:20;;;;;;;;;;;;;;;15.16;100.00;96410.81;1031706;28;20016;-70
2022/06/18 02:03:53;;;;;;;;;;;;;;;15.12;100.00;96409.75;1031610;28;20430;-70
2022/06/18 02:04:26;;;;;;;;;;;;;;;15.13;100.00;96410.56;1031468;28;19976;-69
2022/06/18 02:04:57;;;;;;;;;;;;;;;15.15;100.00;96414.50;1032317;28;19910;-71
2022/06/18 02:05:28;;;;;;;;;;;;;;;15.13;100.00;96403.41;1035621;28;19910;-68
2022/06/18 02:05:58;;;;;;;;;;;;;;;15.14;100.00;96412.13;1035651;28;19909;-72
2022/06/18 02:06:29;;;;;;;;;;;;;;;15.14;100.00;96409.50;1031550;28;19914;-70
2022/06/18 02:07:00;;;;;;;;;;;;;;;15.16;100.00;96415.31;1027433;28;19918;-70
2022/06/18 02:07:30;;;;;;;;;;;;;;;15.17;100.00;96407.09;1027441;28;19921;-71
2022/06/18 02:08:00;;;;;;;;;;;;;;;15.16;100.00;96405.53;1028106;28;19933;-72
2022/06/18 02:08:31;;;;;;;;;;;;;;;15.18;100.00;96411.31;1031622;28;19917;-71
2022/06/18 02:09:02;;;;;;;;;;;;;;;15.21;100.00;96415.25;1039766;28;19971;-69
2022/06/18 02:09:50;;;;;;;;;;;;;;;15.16;100.00;96410.03;1039301;28;19909;-68
2022/06/18 02:10:36;;;;;;;;;;;;;;;15.19;100.00;96409.44;1031607;28;19929;-72
2022/06/18 02:11:07;;;;;;;;;;;;;;;15.18;100.00;96411.31;1032005;28;20323;-70
2022/06/18 02:11:37;;;;;;;;;;;;;;;15.18;100.00;96406.00;1039838;28;19909;-70
2022/06/18 02:12:09;;;;;;;;;;;;;;;15.19;100.00;96407.63;1034929;28;19917;-70
2022/06/18 02:12:40;;;;;;;;;;;;;;;15.16;100.00;96410.03;1027455;28;19921;-69
2022/06/18 02:13:10;;;;;;;;;;;;;;;15.17;100.00;96408.94;1027355;28;19926;-71
2022/06/18 02:13:45;;;;;;;;;;;;;;;15.15;100.00;96406.56;1028164;28;19928;-69
2022/06/18 02:14:15;;;;;;;;;;;;;;;15.15;100.00;96409.22;1032261;28;19937;-70
2022/06/18 02:14:47;;;;;;;;;;;;;;;15.10;100.00;96401.31;1037744;28;19921;-70
2022/06/18 02:15:22;;;;;;;;;;;;;;;15.09;100.00;96410.31;1031512;28;19936;-69
2022/06/18 02:15:53;;;;;;;;;;;;;;;15.04;100.00;96402.41;1028241;28;20459;-72
2022/06/18 02:16:24;;;;;;;;;;;;;;;15.02;100.00;96409.81;1027674;28;19942;-71
2022/06/18 02:16:55;;;;;;;;;;;;;;;15.01;100.00;96409.03;1032181;28;19940;-71
2022/06/18 02:17:25;;;;;;;;;;;;;;;14.97;100.00;96402.72;1027528;28;19918;-70
2022/06/18 02:17:56;;;;;;;;;;;;;;;14.95;100.00;96415.41;1023724;28;19926;-70
2022/06/18 02:18:27;;;;;;;;;;;;;;;14.94;100.00;96405.91;1027513;28;19937;-69
2022/06/18 02:18:59;;;;;;;;;;;;;;;14.95;100.00;96406.69;1027532;28;19951;-71
2022/06/18 02:19:29;;;;;;;;;;;;;;;14.95;100.00;96407.47;1032193;28;20012;-70
2022/06/18 02:20:10;;;;;;;;;;;;;;;14.93;100.00;96403.56;1034762;28;20410;-68
2022/06/18 02:20:45;;;;;;;;;;;;;;;15.00;100.00;96404.81;1030763;28;20009;-68
2022/06/18 02:21:15;;;;;;;;;;;;;;;15.01;100.00;96408.25;1027497;28;19914;-71
2022/06/18 02:21:50;;;;;;;;;;;;;;;15.00;100.00;96404.03;1029691;28;20340;-68
2022/06/18 02:22:21;;;;;;;;;;;;;;;15.01;100.00;96409.03;1034523;28;19921;-73
2022/06/18 02:22:52;;;;;;;;;;;;;;;15.03;100.00;96406.91;1035537;28;19945;-68
2022/06/18 02:23:23;;;;;;;;;;;;;;;15.04;100.00;96408.50;1035699;28;20346;-70
2022/06/18 02:23:53;;;;;;;;;;;;;;;14.99;100.00;96410.38;1035419;28;19913;-69
2022/06/18 02:24:24;;;;;;;;;;;;;;;14.97;100.00;96407.22;1035496;28;19991;-69
2022/06/18 02:24:54;;;;;;;;;;;;;;;14.92;100.00;96408.03;1027429;28;20004;-68
2022/06/18 02:25:26;;;;;;;;;;;;;;;14.90;100.00;96412.03;1023336;29;20009;-70
2022/06/18 02:25:56;;;;;;;;;;;;;;;14.92;100.00;96410.66;1023368;29;19941;-69
2022/06/18 02:26:27;;;;;;;;;;;;;;;14.93;100.00;96403.56;1027402;28;19941;-70
2022/06/18 02:26:57;;;;;;;;;;;;;;;14.91;100.00;96410.94;1027661;28;19910;-71
2022/06/18 02:27:28;;;;;;;;;;;;;;;14.91;100.00;96413.59;1034296;28;19955;-69
2022/06/18 02:28:01;;;;;;;;;;;;;;;14.92;100.00;96399.31;1031384;28;19922;-70
2022/06/18 02:28:33;;;;;;;;;;;;;;;14.95;100.00;96409.34;1027332;28;19918;-70
2022/06/18 02:29:03;;;;;;;;;;;;;;;14.90;100.00;96412.81;1031302;28;19915;-71
2022/06/18 02:29:33;;;;;;;;;;;;;;;14.90;100.00;96402.25;1032089;28;19914;-69
2022/06/18 02:30:04;;;;;;;;;;;;;;;14.87;100.00;96408.06;1035742;28;19917;-69
2022/06/18 02:30:37;;;;;;;;;;;;;;;14.89;100.00;96408.59;1035142;28;19918;-72
2022/06/18 02:31:11;;;;;;;;;;;;;;;14.88;100.00;96407.00;1027917;28;19997;-72
2022/06/18 02:31:45;;;;;;;;;;;;;;;14.85;100.00;96408.34;1031576;28;19967;-70
2022/06/18 02:32:36;;;;;;;;;;;;;;;14.90;100.00;96398.81;1031943;28;19918;-70
2022/06/18 02:33:13;;;;;;;;;;;;;;;14.90;100.00;96409.38;1038695;28;20354;-70
2022/06/18 02:33:45;;;;;;;;;;;;;;;14.91;100.00;96401.16;1035678;28;19917;-72
2022/06/18 02:34:16;;;;;;;;;;;;;;;14.92;100.00;96396.66;1035311;28;19993;-70
2022/06/18 02:34:47;;;;;;;;;;;;;;;14.88;100.00;96399.06;1031362;28;20470;-71
2022/06/18 02:35:17;;;;;;;;;;;;;;;14.86;100.00;96401.22;1027804;28;19969;-70
2022/06/18 02:35:47;;;;;;;;;;;;;;;14.84;100.00;96408.59;1031466;28;19910;-71
2022/06/18 02:36:18;;;;;;;;;;;;;;;14.83;100.00;96401.75;1035493;28;19985;-71
2022/06/18 02:36:48;;;;;;;;;;;;;;;14.79;100.00;96401.50;1039565;28;19929;-70
2022/06/18 02:37:22;;;;;;;;;;;;;;;14.80;100.00;96403.09;1039410;28;19921;-70
2022/06/18 02:37:54;;;;;;;;;;;;;;;14.80;100.00;96402.31;1036111;28;20291;-71
2022/06/18 02:38:24;;;;;;;;;;;;;;;14.78;100.00;96399.91;1035483;28;19913;-70
2022/06/18 02:38:56;;;;;;;;;;;;;;;14.78;100.00;96399.13;1031354;28;19910;-71
2022/06/18 02:39:30;;;;;;;;;;;;;;;14.77;100.00;96400.97;1023780;28;19906;-70
2022/06/18 02:40:02;;;;;;;;;;;;;;;14.81;100.00;96398.59;1028272;28;19911;-70
2022/06/18 02:40:32;;;;;;;;;;;;;;;14.76;100.00;96398.63;1031425;28;19937;-69
2022/06/18 02:41:02;;;;;;;;;;;;;;;14.77;100.00;96405.47;1032536;28;20303;-70
2022/06/18 02:41:33;;;;;;;;;;;;;;;14.78;100.00;96405.19;1039634;28;19959;-71
2022/06/18 02:42:08;;;;;;;;;;;;;;;14.78;100.00;96410.47;1039300;28;20325;-71
2022/06/18 02:42:38;;;;;;;;;;;;;;;14.76;100.00;96401.28;1039329;28;19906;-70
2022/06/18 02:43:09;;;;;;;;;;;;;;;14.80;100.00;96397.81;1031325;28;20431;-71
2022/06/18 02:43:40;;;;;;;;;;;;;;;14.77;100.00;96408.91;1031449;28;19949;-70
2022/06/18 02:44:10;;;;;;;;;;;;;;;14.76;100.00;96401.28;1027227;28;19913;-73
2022/06/18 02:44:44;;;;;;;;;;;;;;;14.76;100.00;96398.63;1028505;28;19907;-71
2022/06/18 02:45:14;;;;;;;;;;;;;;;14.79;100.00;96404.16;1031879;28;19909;-70
2022/06/18 02:45:45;;;;;;;;;;;;;;;14.83;100.00;96407.81;1031590;28;19910;-72
2022/06/18 02:46:15;;;;;;;;;;;;;;;14.82;100.00;96400.97;1027635;28;19946;-70
2022/06/18 02:46:45;;;;;;;;;;;;;;;14.74;100.00;96393.59;1031607;28;20399;-70
2022/06/18 02:47:16;;;;;;;;;;;;;;;14.78;100.00;96402.56;1031315;28;19913;-71
2022/06/18 02:47:49;;;;;;;;;;;;;;;14.75;100.00;96405.75;1031372;28;20132;-70
2022/06/18 02:48:20;;;;;;;;;;;;;;;14.74;100.00;96404.16;1031783;28;19938;-70
2022/06/18 02:48:51;;;;;;;;;;;;;;;14.75;100.00;96404.94;1031723;28;19910;-70
2022/06/18 02:49:21;;;;;;;;;;;;;;;14.76;100.00;96402.06;1035264;28;19917;-71
2022/06/18 02:49:56;;;;;;;;;;;;;;;14.76;100.00;96401.28;1031835;28;19982;-70
2022/06/18 02:50:27;;;;;;;;;;;;;;;14.77;100.00;96408.91;1032167;28;19960;-70